CA-0435 weather

WESCAM Burlington
Burlington, Ontario, Canada

Public forecast

Using degrees Celsius for public forecast. Weather courtesy of forecast.io.

Closest aviation weather report (METAR) to WESCAM Burlington

Closest report is John C. Munro Hamilton International Airport, 11.0 nm (20.3 km) SSW. Retrieved 2020/05/30 11:25 UTC (13 minutes ago):

CYHM 301125Z 17004KT 15SM BKN008 OVC038 12/11 A2996 RMK SC5SC2 SLP148

Closest aviation forecast (TAF) to WESCAM Burlington

Closest forecast is John C. Munro Hamilton International Airport, 11.0 nm (20.3 km) SSW. Retrieved 2020/05/30 06:42 UTC (5 hours ago):

TAF TAF CYHM 300540Z 3006/3106 24005KT P6SM FEW050 FM300800 23005KT P6SM BKN030 TEMPO 3008/3017 BKN020 BECMG 3012/3014 28012KT BECMG 3014/3016 30012G22KT FM301700 30015G25KT P6SM BKN040 FM310100 32010KT P6SM FEW040 RMK NXT FCST BY 301200Z